Time;durP1;ratioP1;P1;durP2;ratioP2;P2;SDS_P1;SDS_P2;PMS_P1;PMS_P2;Temp;Humidity;BMP_temperature;BMP_pressure;BME280_temperature;BME280_humidity;BME280_pressure;Samples;Min_cycle;Max_cycle;Signal;HPM_P1;HPM_P2
2021/11/25 00:01:03;;;;;;;7.78;4.40;;;1.50;99.90;;;;;;5083863;28;20048;-63
2021/11/25 00:03:28;;;;;;;8.50;4.13;;;1.60;99.90;;;;;;5083299;28;20411;-63
2021/11/25 00:05:54;;;;;;;8.93;3.90;;;1.50;99.90;;;;;;5066549;28;20041;-63
2021/11/25 00:08:19;;;;;;;7.05;4.18;;;1.60;99.90;;;;;;5080008;28;20042;-63
2021/11/25 00:10:45;;;;;;;8.15;3.45;;;1.60;99.90;;;;;;5084032;28;20064;-63
2021/11/25 00:13:13;;;;;;;8.18;3.78;;;1.60;99.90;;;;;;5079320;28;20662;-62
2021/11/25 00:15:39;;;;;;;5.68;3.53;;;1.60;99.90;;;;;;5082180;28;20028;-63
2021/11/25 00:18:05;;;;;;;6.40;3.60;;;1.70;99.90;;;;;;5072839;28;20245;-63
2021/11/25 00:20:31;;;;;;;6.32;4.00;;;1.70;99.90;;;;;;5065066;28;20571;-63
2021/11/25 00:22:57;;;;;;;8.30;4.47;;;1.70;99.90;;;;;;5067026;28;20040;-63
2021/11/25 00:25:23;;;;;;;7.82;3.47;;;1.70;99.90;;;;;;5069969;28;20484;-63
2021/11/25 00:27:49;;;;;;;14.88;8.73;;;1.70;99.90;;;;;;5068755;28;20048;-63
2021/11/25 00:30:15;;;;;;;10.75;6.93;;;1.70;99.90;;;;;;5065543;28;20064;-63
2021/11/25 00:32:42;;;;;;;12.10;6.90;;;1.60;99.90;;;;;;5068423;28;20091;-63
2021/11/25 00:35:10;;;;;;;14.50;7.68;;;1.70;99.90;;;;;;5060551;28;20037;-63
2021/11/25 00:37:37;;;;;;;11.63;4.93;;;1.70;99.90;;;;;;5069358;28;20458;-63
2021/11/25 00:40:07;;;;;;;8.15;4.55;;;1.70;99.90;;;;;;5062443;28;20041;-62
2021/11/25 00:42:33;;;;;;;24.52;9.90;;;1.80;99.90;;;;;;5052525;28;20556;-63
2021/11/25 00:44:59;;;;;;;13.23;7.25;;;1.80;99.90;;;;;;5067614;28;20028;-63
2021/11/25 00:47:25;;;;;;;11.05;7.22;;;1.80;99.90;;;;;;5068818;28;20056;-63
2021/11/25 00:49:50;;;;;;;9.88;5.97;;;1.80;99.90;;;;;;5062978;28;20079;-63
2021/11/25 00:52:16;;;;;;;10.98;5.25;;;1.80;99.90;;;;;;5059917;28;20483;-63
2021/11/25 00:54:41;;;;;;;6.80;4.60;;;1.90;99.90;;;;;;5068410;28;20613;-62
2021/11/25 00:57:07;;;;;;;9.57;4.95;;;1.90;99.90;;;;;;5068490;28;20051;-62
2021/11/25 00:59:33;;;;;;;7.22;5.13;;;2.00;99.90;;;;;;5065930;28;20043;-63
2021/11/25 01:01:59;;;;;;;12.38;5.57;;;1.90;99.90;;;;;;5054548;28;20036;-63
2021/11/25 01:04:24;;;;;;;7.13;4.90;;;2.00;99.90;;;;;;5064248;28;20044;-63
2021/11/25 01:06:50;;;;;;;7.53;4.90;;;2.00;99.90;;;;;;5065273;28;20480;-63
2021/11/25 01:09:16;;;;;;;8.95;5.50;;;2.10;99.90;;;;;;5069255;28;20037;-63
2021/11/25 01:11:43;;;;;;;9.40;5.63;;;2.00;99.90;;;;;;5066805;28;20051;-63
2021/11/25 01:14:08;;;;;;;8.75;4.95;;;1.90;99.90;;;;;;5067374;28;20043;-63
2021/11/25 01:16:34;;;;;;;9.02;5.55;;;2.00;99.90;;;;;;5068186;28;20033;-63
2021/11/25 01:19:00;;;;;;;7.22;5.00;;;2.00;99.90;;;;;;5068405;28;20039;-64
2021/11/25 01:21:25;;;;;;;15.80;5.97;;;2.00;99.90;;;;;;5066442;28;20040;-63
2021/11/25 01:23:51;;;;;;;7.60;5.65;;;2.00;99.90;;;;;;5065420;28;20086;-63
2021/11/25 01:26:16;;;;;;;8.93;5.18;;;2.10;99.90;;;;;;5051345;28;20049;-62
2021/11/25 01:28:42;;;;;;;8.30;5.30;;;2.20;99.90;;;;;;5061618;28;20036;-63
2021/11/25 01:31:08;;;;;;;7.07;4.90;;;2.20;99.90;;;;;;5065516;28;20036;-64
2021/11/25 01:33:33;;;;;;;8.07;5.30;;;2.20;99.90;;;;;;5061859;28;20237;-64
2021/11/25 01:36:00;;;;;;;6.90;5.13;;;2.20;99.90;;;;;;5068386;28;20232;-63
2021/11/25 01:38:27;;;;;;;6.47;4.82;;;2.20;99.90;;;;;;5066696;28;20036;-63
2021/11/25 01:40:53;;;;;;;8.05;4.93;;;2.20;99.90;;;;;;5060669;28;20029;-63
2021/11/25 01:43:25;;;;;;;9.13;4.88;;;2.30;99.90;;;;;;5060364;28;20037;-63
2021/11/25 01:45:52;;;;;;;10.75;6.80;;;2.30;99.90;;;;;;5062405;28;21305;-64
2021/11/25 01:48:19;;;;;;;8.27;5.82;;;2.20;99.90;;;;;;5065021;28;20037;-64
2021/11/25 01:50:45;;;;;;;9.35;6.60;;;2.30;99.90;;;;;;5057416;28;20056;-64
2021/11/25 01:53:12;;;;;;;10.52;6.25;;;2.20;99.90;;;;;;5067007;28;20044;-64
2021/11/25 01:55:38;;;;;;;9.07;6.03;;;2.20;99.90;;;;;;5064112;28;20044;-64
2021/11/25 01:58:04;;;;;;;7.65;5.07;;;2.20;99.90;;;;;;5065477;28;20586;-64
2021/11/25 02:00:32;;;;;;;6.82;5.30;;;2.20;99.90;;;;;;5065631;28;20041;-63
2021/11/25 02:02:59;;;;;;;7.03;4.90;;;2.20;99.90;;;;;;5062403;28;20546;-64
2021/11/25 02:05:26;;;;;;;8.18;5.55;;;2.20;99.90;;;;;;5065197;28;20504;-63
2021/11/25 02:07:51;;;;;;;7.05;5.60;;;2.20;99.90;;;;;;5067982;28;20093;-63
2021/11/25 02:10:18;;;;;;;9.60;6.60;;;2.20;99.90;;;;;;5064929;28;20040;-63
2021/11/25 02:12:44;;;;;;;9.57;6.38;;;2.20;99.90;;;;;;5059734;28;20218;-63
2021/11/25 02:15:12;;;;;;;10.20;6.90;;;2.20;99.90;;;;;;5050703;28;20037;-63
2021/11/25 02:17:38;;;;;;;10.13;6.90;;;2.20;99.90;;;;;;5060143;28;20044;-63
2021/11/25 02:20:06;;;;;;;9.88;6.28;;;2.10;99.90;;;;;;5065590;28;20071;-63
2021/11/25 02:22:32;;;;;;;8.52;5.63;;;2.20;99.90;;;;;;5066282;28;20503;-63
2021/11/25 02:24:58;;;;;;;8.15;5.57;;;2.20;99.90;;;;;;5066996;28;20036;-63
2021/11/25 02:27:23;;;;;;;7.85;5.28;;;2.20;99.90;;;;;;5066187;28;20119;-63
2021/11/25 02:29:50;;;;;;;8.02;5.78;;;2.30;99.90;;;;;;5065513;28;20036;-64
2021/11/25 02:32:29;;;;;;;7.18;4.88;;;2.30;99.90;;;;;;5064587;28;20562;-64
2021/11/25 02:34:55;;;;;;;9.85;5.65;;;2.30;99.90;;;;;;5065219;28;20105;-64
2021/11/25 02:37:20;;;;;;;8.23;5.20;;;2.30;99.90;;;;;;5060320;28;20070;-63
2021/11/25 02:39:47;;;;;;;6.78;5.03;;;2.40;99.90;;;;;;5066225;28;20039;-64
2021/11/25 02:42:13;;;;;;;5.75;4.25;;;2.40;99.90;;;;;;5064890;28;20036;-63
2021/11/25 02:44:39;;;;;;;6.82;4.82;;;2.40;99.90;;;;;;5061150;28;20055;-63
2021/11/25 02:47:04;;;;;;;7.70;5.40;;;2.40;99.90;;;;;;5067238;28;20072;-63
2021/11/25 02:49:30;;;;;;;8.80;5.30;;;2.40;99.90;;;;;;5065698;28;20047;-63
2021/11/25 02:51:56;;;;;;;9.73;5.13;;;2.40;99.90;;;;;;5066382;28;20040;-63
2021/11/25 02:54:21;;;;;;;7.97;4.35;;;2.30;99.90;;;;;;5066987;28;20044;-63
2021/11/25 02:56:47;;;;;;;6.88;4.65;;;2.40;99.90;;;;;;5067026;28;20036;-63
2021/11/25 02:59:12;;;;;;;8.18;5.18;;;2.40;99.90;;;;;;5064695;28;20028;-63
2021/11/25 03:01:38;;;;;;;7.13;4.63;;;2.40;99.90;;;;;;5058690;28;20443;-64
2021/11/25 03:04:06;;;;;;;8.23;5.35;;;2.40;99.90;;;;;;5066161;28;20042;-64
2021/11/25 03:06:32;;;;;;;8.23;4.65;;;2.40;99.90;;;;;;5067525;28;20151;-64
2021/11/25 03:08:59;;;;;;;7.63;4.43;;;2.40;99.90;;;;;;5065642;28;20038;-64
2021/11/25 03:11:27;;;;;;;6.90;4.90;;;2.40;99.90;;;;;;5066133;28;20121;-62
2021/11/25 03:13:59;;;;;;;6.30;4.38;;;2.30;99.90;;;;;;5064099;28;20036;-64
2021/11/25 03:16:25;;;;;;;7.85;5.00;;;2.30;99.90;;;;;;5066541;28;20036;-63
2021/11/25 03:18:51;;;;;;;6.78;4.43;;;2.30;99.90;;;;;;5064826;28;20495;-63
2021/11/25 03:21:18;;;;;;;6.53;4.88;;;2.30;99.90;;;;;;5066623;28;20041;-63
2021/11/25 03:23:46;;;;;;;12.88;5.50;;;2.30;99.90;;;;;;5067462;28;20051;-64
2021/11/25 03:26:15;;;;;;;7.72;4.53;;;2.30;99.90;;;;;;5067099;28;20131;-64
2021/11/25 03:28:43;;;;;;;10.35;5.38;;;2.30;99.90;;;;;;5066846;28;20044;-64
2021/11/25 03:31:11;;;;;;;9.13;5.22;;;2.30;99.90;;;;;;5052565;28;20047;-64
2021/11/25 03:33:36;;;;;;;7.47;5.15;;;2.30;99.90;;;;;;5065475;28;20734;-64
2021/11/25 03:36:05;;;;;;;22.67;11.48;;;2.30;99.90;;;;;;5068524;28;20119;-64
2021/11/25 03:38:30;;;;;;;7.63;5.25;;;2.20;99.90;;;;;;5058706;28;20095;-63
2021/11/25 03:40:56;;;;;;;8.38;5.25;;;2.30;99.90;;;;;;5065806;28;20029;-63
2021/11/25 03:43:22;;;;;;;7.10;4.68;;;2.20;99.90;;;;;;5063498;28;20045;-63
2021/11/25 03:45:48;;;;;;;6.35;4.38;;;2.20;99.90;;;;;;5064849;28;20044;-64
2021/11/25 03:48:14;;;;;;;10.98;6.07;;;2.20;99.90;;;;;;5065369;28;20072;-63
2021/11/25 03:50:40;;;;;;;11.93;5.80;;;2.20;99.90;;;;;;5066332;28;20090;-63
2021/11/25 03:53:07;;;;;;;7.03;4.97;;;2.30;99.90;;;;;;5064542;28;20059;-63
2021/11/25 03:55:35;;;;;;;8.93;5.85;;;2.20;99.90;;;;;;5067558;28;20029;-63
2021/11/25 03:58:00;;;;;;;7.28;5.00;;;2.30;99.90;;;;;;5068848;28;20486;-63
2021/11/25 04:00:27;;;;;;;8.55;5.22;;;2.20;99.90;;;;;;5067996;28;20032;-63
2021/11/25 04:02:53;;;;;;;9.23;4.90;;;2.20;99.90;;;;;;5062486;28;20028;-63
2021/11/25 04:05:19;;;;;;;7.57;5.03;;;2.30;99.90;;;;;;5068016;28;20036;-64
2021/11/25 04:07:45;;;;;;;7.40;4.85;;;2.30;99.90;;;;;;5071476;28;20036;-63
2021/11/25 04:10:13;;;;;;;6.97;4.30;;;2.30;99.90;;;;;;5067961;28;20036;-63
2021/11/25 04:12:39;;;;;;;7.60;4.68;;;2.30;99.90;;;;;;5058404;28;20063;-64
2021/11/25 04:15:06;;;;;;;6.75;4.82;;;2.30;99.90;;;;;;5066166;28;20508;-65
2021/11/25 04:17:32;;;;;;;7.70;5.30;;;2.30;99.90;;;;;;5069617;28;20040;-63
2021/11/25 04:19:57;;;;;;;6.78;4.78;;;2.30;99.90;;;;;;5068363;28;20278;-63
2021/11/25 04:22:23;;;;;;;6.97;4.65;;;2.30;99.90;;;;;;5070315;28;20032;-64
2021/11/25 04:24:50;;;;;;;8.07;5.22;;;2.30;99.90;;;;;;5070313;28;20068;-62
2021/11/25 04:27:16;;;;;;;9.45;5.35;;;2.30;99.90;;;;;;5066788;28;20520;-63
2021/11/25 04:29:45;;;;;;;7.18;4.93;;;2.30;99.90;;;;;;5066250;28;20045;-64
2021/11/25 04:37:41;;;;;;;7.03;4.22;;;2.20;99.90;;;;;;5064209;28;20032;-63
2021/11/25 04:40:07;;;;;;;6.05;3.95;;;2.10;99.90;;;;;;5068939;28;20055;-63
2021/11/25 04:42:33;;;;;;;8.90;5.03;;;2.10;99.90;;;;;;5066919;28;20035;-63
2021/11/25 04:44:58;;;;;;;7.30;4.93;;;2.10;99.90;;;;;;5067738;28;20040;-63
2021/11/25 04:47:24;;;;;;;8.30;4.43;;;2.20;99.90;;;;;;5068461;28;20202;-63
2021/11/25 04:49:50;;;;;;;8.38;4.55;;;2.20;99.90;;;;;;5062734;28;20040;-63
2021/11/25 04:52:15;;;;;;;5.85;4.07;;;2.20;99.90;;;;;;5060168;28;20111;-62
2021/11/25 04:54:41;;;;;;;7.15;4.18;;;2.20;99.90;;;;;;5068553;28;20032;-63
2021/11/25 04:57:06;;;;;;;7.28;4.40;;;2.20;99.90;;;;;;5069524;28;20107;-63
2021/11/25 04:59:32;;;;;;;6.18;3.90;;;2.20;99.90;;;;;;5066590;28;20033;-64
2021/11/25 05:01:58;;;;;;;5.90;3.88;;;2.30;99.90;;;;;;5057264;28;20055;-64
2021/11/25 05:04:23;;;;;;;6.03;4.47;;;2.20;99.90;;;;;;5061052;28;20028;-63
2021/11/25 05:06:49;;;;;;;5.32;3.70;;;2.20;99.90;;;;;;5066144;28;20043;-64
2021/11/25 05:09:15;;;;;;;6.18;3.85;;;2.20;99.90;;;;;;5066835;28;20093;-63
2021/11/25 05:11:41;;;;;;;5.63;3.83;;;2.30;99.90;;;;;;5066671;28;20115;-63
2021/11/25 05:14:06;;;;;;;5.15;3.80;;;2.30;99.90;;;;;;5066290;28;20229;-63
2021/11/25 05:16:32;;;;;;;6.65;4.10;;;2.30;99.90;;;;;;5049922;28;20033;-62
2021/11/25 05:18:59;;;;;;;5.47;3.72;;;2.30;99.90;;;;;;5069172;28;20120;-62
2021/11/25 05:21:25;;;;;;;5.10;3.60;;;2.20;99.90;;;;;;5067381;28;20044;-62
2021/11/25 05:23:50;;;;;;;6.43;3.92;;;2.30;99.90;;;;;;5065063;28;20658;-62
2021/11/25 05:26:16;;;;;;;8.02;3.65;;;2.30;99.90;;;;;;5068925;28;20040;-62
2021/11/25 05:28:42;;;;;;;6.43;3.80;;;2.30;99.90;;;;;;5064715;28;20040;-62
2021/11/25 05:31:07;;;;;;;7.20;4.15;;;2.30;99.90;;;;;;5056360;28;20044;-62
2021/11/25 05:33:33;;;;;;;5.25;4.00;;;2.30;99.90;;;;;;5063763;28;20048;-64
2021/11/25 05:35:59;;;;;;;5.25;3.92;;;2.20;99.90;;;;;;5067114;28;20050;-63
2021/11/25 05:38:25;;;;;;;6.57;3.97;;;2.30;99.90;;;;;;5067900;28;20041;-62
2021/11/25 05:40:51;;;;;;;13.85;3.83;;;2.20;99.90;;;;;;5066480;28;20065;-62
2021/11/25 05:43:18;;;;;;;8.05;3.58;;;2.30;99.90;;;;;;5062576;28;20044;-61
2021/11/25 05:45:44;;;;;;;5.88;3.78;;;2.40;99.90;;;;;;5067749;28;20049;-63
2021/11/25 05:48:09;;;;;;;10.77;3.67;;;2.40;99.90;;;;;;5067104;28;20059;-62
2021/11/25 05:50:35;;;;;;;6.00;4.13;;;2.40;99.90;;;;;;5053238;28;20488;-62
2021/11/25 05:53:01;;;;;;;7.68;4.18;;;2.40;99.90;;;;;;5064085;28;20033;-62
2021/11/25 05:55:29;;;;;;;6.68;3.88;;;2.40;99.90;;;;;;5064949;28;20515;-61
2021/11/25 05:57:56;;;;;;;7.03;4.03;;;2.30;99.90;;;;;;5062922;28;20133;-62
2021/11/25 06:00:22;;;;;;;7.32;4.75;;;2.30;99.90;;;;;;5063462;28;20520;-62
2021/11/25 06:02:48;;;;;;;5.40;3.95;;;2.30;99.90;;;;;;5062632;28;20115;-61
2021/11/25 06:05:16;;;;;;;8.82;4.75;;;2.20;99.90;;;;;;5065362;28;20507;-62
2021/11/25 06:07:47;;;;;;;6.47;4.57;;;2.30;99.90;;;;;;5069506;28;20052;-63
2021/11/25 06:10:16;;;;;;;7.35;4.75;;;2.20;99.90;;;;;;5062257;28;20036;-62
2021/11/25 06:12:41;;;;;;;7.97;4.45;;;2.30;99.90;;;;;;5068794;28;20028;-62
2021/11/25 06:15:08;;;;;;;7.25;4.82;;;2.20;99.90;;;;;;5063956;28;20086;-63
2021/11/25 06:17:33;;;;;;;7.50;4.80;;;2.20;99.90;;;;;;5076118;28;20539;-62
2021/11/25 06:19:59;;;;;;;6.82;4.97;;;2.20;99.90;;;;;;5077164;28;20114;-65
2021/11/25 06:22:25;;;;;;;7.10;4.28;;;2.20;99.90;;;;;;5064427;28;20093;-66
2021/11/25 06:24:51;;;;;;;7.85;5.00;;;2.30;99.90;;;;;;5067862;28;20037;-63
2021/11/25 06:27:17;;;;;;;7.57;4.55;;;2.30;99.90;;;;;;5066885;28;20047;-62
2021/11/25 06:29:43;;;;;;;6.35;4.55;;;2.40;99.90;;;;;;5074201;28;20039;-65
2021/11/25 06:32:09;;;;;;;8.38;5.93;;;2.30;99.90;;;;;;5068638;28;20052;-63
2021/11/25 06:34:35;;;;;;;20.35;9.68;;;2.30;99.90;;;;;;5065572;28;20105;-63
2021/11/25 06:37:00;;;;;;;24.33;11.85;;;2.40;99.90;;;;;;5066714;28;20039;-66
2021/11/25 06:39:26;;;;;;;14.15;6.68;;;2.30;99.90;;;;;;5064172;28;20400;-63
2021/11/25 06:41:51;;;;;;;7.78;5.43;;;2.30;99.90;;;;;;5065088;28;20573;-62
2021/11/25 06:44:18;;;;;;;8.38;5.45;;;2.30;99.90;;;;;;5064119;28;20036;-64
2021/11/25 06:46:44;;;;;;;10.38;6.07;;;2.30;99.90;;;;;;5066007;28;20044;-63
2021/11/25 06:49:10;;;;;;;7.60;5.72;;;2.30;99.90;;;;;;5063519;28;20097;-63
2021/11/25 06:51:36;;;;;;;12.85;5.97;;;2.30;99.90;;;;;;5051278;28;20036;-62
2021/11/25 06:54:01;;;;;;;10.88;6.45;;;2.30;99.90;;;;;;5072058;28;20032;-63
2021/11/25 06:56:27;;;;;;;8.35;5.80;;;2.30;99.90;;;;;;5060312;28;20044;-63
2021/11/25 06:58:55;;;;;;;9.18;5.78;;;2.30;99.90;;;;;;5065015;28;20055;-63
2021/11/25 07:01:21;;;;;;;9.63;5.97;;;2.30;99.90;;;;;;5060506;28;20047;-63
2021/11/25 07:03:46;;;;;;;10.75;6.20;;;2.30;99.90;;;;;;5055496;28;20040;-64
2021/11/25 07:06:12;;;;;;;10.50;6.18;;;2.40;99.90;;;;;;5066391;28;20045;-62
2021/11/25 07:08:38;;;;;;;10.15;6.65;;;2.30;99.90;;;;;;5064859;28;20037;-62
2021/11/25 07:11:04;;;;;;;7.35;4.93;;;2.30;99.90;;;;;;5066953;28;20716;-63
2021/11/25 07:13:29;;;;;;;7.88;4.88;;;2.20;99.90;;;;;;5076338;28;20032;-64
2021/11/25 07:15:55;;;;;;;7.28;5.45;;;2.30;99.90;;;;;;5066939;28;20048;-64
2021/11/25 07:18:21;;;;;;;7.68;5.35;;;2.30;99.90;;;;;;5068890;28;20494;-63
2021/11/25 07:20:47;;;;;;;9.35;5.68;;;2.30;99.90;;;;;;5069267;28;20082;-62
2021/11/25 07:23:13;;;;;;;8.50;6.13;;;2.30;99.90;;;;;;5067528;28;20045;-63
2021/11/25 07:25:39;;;;;;;21.30;9.88;;;2.30;99.90;;;;;;5066304;28;20045;-63
2021/11/25 07:28:05;;;;;;;42.00;20.63;;;2.30;99.90;;;;;;5067470;28;20048;-62
2021/11/25 07:30:31;;;;;;;21.25;11.30;;;2.30;99.90;;;;;;5069216;28;20098;-63
2021/11/25 07:32:56;;;;;;;14.27;7.43;;;2.40;99.90;;;;;;5071484;28;20033;-62
2021/11/25 07:35:23;;;;;;;12.40;7.45;;;2.30;99.90;;;;;;5068154;28;20044;-63
2021/11/25 07:37:52;;;;;;;12.70;7.35;;;2.40;99.90;;;;;;5071440;28;20083;-62
2021/11/25 07:40:20;;;;;;;12.00;5.97;;;2.40;99.90;;;;;;5059798;28;20043;-62
2021/11/25 07:42:45;;;;;;;54.75;24.42;;;2.40;99.90;;;;;;5065528;28;20036;-61
2021/11/25 07:45:11;;;;;;;34.42;16.23;;;2.40;99.90;;;;;;5060340;28;20037;-62
2021/11/25 07:47:38;;;;;;;33.95;15.65;;;2.40;99.90;;;;;;5062405;28;20044;-62
2021/11/25 07:50:09;;;;;;;29.75;14.13;;;2.40;99.90;;;;;;5063841;28;20040;-62
2021/11/25 07:52:37;;;;;;;28.38;14.60;;;2.40;99.90;;;;;;5064065;28;20086;-62
2021/11/25 07:55:03;;;;;;;19.15;8.23;;;2.40;99.90;;;;;;5070994;28;20074;-62
2021/11/25 07:57:29;;;;;;;10.02;6.13;;;2.40;99.90;;;;;;5064218;28;20040;-62
2021/11/25 07:59:55;;;;;;;8.95;5.60;;;2.40;99.90;;;;;;5070552;28;20060;-62
2021/11/25 08:02:20;;;;;;;9.90;4.93;;;2.50;99.90;;;;;;5067064;28;20173;-62
2021/11/25 08:04:47;;;;;;;7.68;4.95;;;2.60;99.90;;;;;;5065417;28;20028;-62
2021/11/25 08:07:13;;;;;;;7.68;4.78;;;2.60;99.90;;;;;;5071456;28;20045;-61
2021/11/25 08:09:39;;;;;;;7.35;5.13;;;2.60;99.90;;;;;;5066322;28;20043;-62
2021/11/25 08:12:05;;;;;;;6.60;4.38;;;2.60;99.90;;;;;;5009205;28;20068;-62
2021/11/25 08:14:31;;;;;;;12.82;4.80;;;2.70;99.90;;;;;;5066716;28;20039;-62
2021/11/25 08:16:59;;;;;;;7.22;4.57;;;2.70;99.90;;;;;;5070566;28;20036;-62
2021/11/25 08:19:28;;;;;;;9.95;4.97;;;2.70;99.90;;;;;;5069153;28;20036;-62
2021/11/25 08:21:54;;;;;;;6.82;4.97;;;2.60;99.90;;;;;;5071227;28;20557;-63
2021/11/25 08:24:20;;;;;;;6.75;4.60;;;2.70;99.90;;;;;;5072200;28;20059;-62
2021/11/25 08:26:46;;;;;;;14.70;5.25;;;2.70;99.90;;;;;;5071903;28;20504;-62
2021/11/25 08:29:12;;;;;;;7.15;5.13;;;2.80;99.90;;;;;;5070812;28;20148;-62
2021/11/25 08:31:37;;;;;;;8.27;5.30;;;2.80;99.90;;;;;;5057726;28;20059;-62
2021/11/25 08:34:04;;;;;;;7.88;5.30;;;2.80;99.90;;;;;;5068092;28;20036;-62
2021/11/25 08:36:30;;;;;;;6.50;4.53;;;2.80;99.90;;;;;;5070979;28;20063;-61
2021/11/25 08:38:56;;;;;;;8.55;5.15;;;2.80;99.90;;;;;;5068591;28;20040;-62
2021/11/25 08:41:21;;;;;;;9.38;4.93;;;2.80;99.90;;;;;;5070522;28;20044;-61
2021/11/25 08:43:47;;;;;;;10.55;4.60;;;2.80;99.90;;;;;;5067105;28;20510;-62
2021/11/25 08:46:15;;;;;;;6.35;4.20;;;2.70;99.90;;;;;;5068887;28;20416;-62
2021/11/25 08:48:40;;;;;;;4.55;3.58;;;2.70;99.90;;;;;;5069580;28;20036;-62
2021/11/25 08:51:06;;;;;;;9.57;3.85;;;2.70;99.90;;;;;;5054869;28;20037;-62
2021/11/25 08:53:32;;;;;;;9.88;4.57;;;2.80;99.90;;;;;;5069016;28;20052;-62
2021/11/25 08:55:57;;;;;;;6.90;4.65;;;2.80;99.90;;;;;;5060796;28;20066;-62
2021/11/25 08:58:23;;;;;;;19.55;8.68;;;2.90;99.90;;;;;;5068548;28;21015;-61
2021/11/25 09:00:49;;;;;;;17.52;9.07;;;2.90;99.90;;;;;;5056060;28;20050;-61
2021/11/25 09:03:15;;;;;;;23.40;11.93;;;2.90;99.90;;;;;;5055551;28;20049;-62
2021/11/25 09:05:41;;;;;;;13.27;7.75;;;3.00;99.90;;;;;;5071641;28;20039;-63
2021/11/25 09:08:06;;;;;;;16.25;8.93;;;3.10;99.90;;;;;;5067952;28;20041;-63
2021/11/25 09:10:35;;;;;;;19.08;9.35;;;3.10;99.90;;;;;;5068533;28;20700;-62
2021/11/25 09:13:02;;;;;;;9.20;5.38;;;3.20;99.90;;;;;;5067142;28;20119;-62
2021/11/25 09:15:28;;;;;;;11.40;5.63;;;3.20;99.90;;;;;;5058153;28;20033;-62
2021/11/25 09:17:54;;;;;;;12.43;6.93;;;3.30;99.90;;;;;;5067106;28;20425;-62
2021/11/25 09:20:20;;;;;;;9.27;5.45;;;3.30;99.90;;;;;;5066245;28;20054;-62
2021/11/25 09:22:46;;;;;;;11.50;7.25;;;3.20;99.90;;;;;;5068190;28;20043;-62
2021/11/25 09:25:11;;;;;;;8.45;5.57;;;3.20;99.90;;;;;;5064476;28;20571;-63
2021/11/25 09:27:37;;;;;;;21.80;9.20;;;3.10;99.90;;;;;;5067659;28;20068;-62
2021/11/25 09:30:05;;;;;;;13.02;6.75;;;3.20;99.90;;;;;;5058411;28;20033;-62
2021/11/25 09:32:31;;;;;;;9.80;5.15;;;3.10;99.90;;;;;;5059877;28;20132;-62
2021/11/25 09:34:57;;;;;;;8.55;5.10;;;3.20;99.90;;;;;;5065828;28;20119;-62
2021/11/25 09:37:23;;;;;;;11.45;5.38;;;3.20;99.90;;;;;;5059469;28;20055;-63
2021/11/25 09:39:49;;;;;;;9.10;5.78;;;3.30;99.90;;;;;;5066598;28;20036;-62
2021/11/25 09:42:15;;;;;;;7.90;5.45;;;3.30;99.90;;;;;;5067384;28;20044;-62
2021/11/25 09:44:41;;;;;;;7.50;5.22;;;3.30;99.90;;;;;;5065657;28;20072;-62
2021/11/25 09:47:08;;;;;;;9.50;5.95;;;3.20;99.90;;;;;;5069219;28;20079;-62
2021/11/25 09:49:34;;;;;;;9.73;6.97;;;3.30;99.90;;;;;;5049179;28;20569;-63
2021/11/25 09:51:59;;;;;;;7.93;5.38;;;3.20;99.90;;;;;;5065966;28;20044;-62
2021/11/25 09:54:26;;;;;;;10.07;5.65;;;3.20;99.90;;;;;;5070042;28;20047;-63
2021/11/25 09:56:52;;;;;;;8.65;5.97;;;3.20;99.90;;;;;;5059046;28;20048;-62
2021/11/25 09:59:18;;;;;;;14.05;6.30;;;3.30;99.90;;;;;;5059517;28;20600;-62
2021/11/25 10:01:44;;;;;;;11.00;5.97;;;3.40;99.90;;;;;;5047086;28;20040;-62
2021/11/25 10:04:10;;;;;;;9.20;5.80;;;3.50;99.90;;;;;;5061157;28;20565;-63
2021/11/25 10:06:57;;;;;;;11.88;5.75;;;3.50;99.90;;;;;;5066473;28;20055;-63
2021/11/25 10:09:34;;;;;;;;;;;3.40;99.90;;;;;;5078252;28;20040;-63
2021/11/25 10:12:01;;;;;;;9.90;5.13;;;3.40;99.90;;;;;;5068146;28;19977;-63
2021/11/25 10:14:39;;;;;;;9.10;6.18;;;3.40;99.90;;;;;;5065457;28;20115;-62
2021/11/25 10:17:05;;;;;;;9.55;5.13;;;3.60;99.90;;;;;;5066599;28;20241;-62
2021/11/25 10:19:31;;;;;;;9.88;5.22;;;3.60;99.90;;;;;;5065539;28;20111;-62
2021/11/25 10:22:00;;;;;;;11.27;5.43;;;3.50;99.90;;;;;;5061252;28;20032;-62
2021/11/25 10:24:42;;;;;;;9.93;6.03;;;3.70;99.90;;;;;;5068818;28;20044;-63
2021/11/25 10:27:18;;;;;;;12.00;5.45;;;3.90;99.90;;;;;;5064202;28;20044;-62
2021/11/25 10:29:46;;;;;;;12.73;8.50;;;4.20;99.90;;;;;;5056902;28;20044;-63
2021/11/25 10:32:21;;;;;;;15.60;9.45;;;4.30;99.90;;;;;;5055760;28;20404;-62
2021/11/25 10:35:09;;;;;;;14.18;8.52;;;4.40;99.90;;;;;;5060187;28;20041;-63
2021/11/25 10:37:41;;;;;;;11.68;7.20;;;4.50;99.90;;;;;;5064600;28;20645;-63
2021/11/25 10:40:28;;;;;;;31.77;12.98;;;4.60;99.90;;;;;;5066569;28;20044;-62
2021/11/25 10:42:53;;;;;;;10.43;6.63;;;4.70;99.90;;;;;;5063737;28;20392;-62
2021/11/25 10:45:20;;;;;;;;;;;4.70;99.90;;;;;;5061325;28;20036;-62
2021/11/25 10:48:05;;;;;;;12.00;5.82;;;4.70;99.90;;;;;;5065033;28;19924;-62
2021/11/25 10:50:33;;;;;;;21.13;10.60;;;4.60;99.90;;;;;;5060626;28;20052;-62
2021/11/25 10:53:07;;;;;;;13.38;8.40;;;4.70;99.90;;;;;;5060265;28;20649;-62
2021/11/25 10:55:35;;;;;;;11.38;7.22;;;4.70;99.90;;;;;;5066188;28;20043;-62
2021/11/25 10:58:02;;;;;;;9.85;6.18;;;4.70;99.90;;;;;;5069876;28;20139;-62
2021/11/25 11:00:36;;;;;;;8.30;5.10;;;4.70;99.90;;;;;;5067929;28;20179;-63
2021/11/25 11:03:06;;;;;;;8.23;4.72;;;4.70;99.90;;;;;;5064041;28;20037;-62
2021/11/25 11:05:44;;;;;;;7.13;4.90;;;4.70;99.90;;;;;;5055165;28;20029;-62
2021/11/25 11:08:10;;;;;;;7.78;4.70;;;4.80;99.90;;;;;;5062777;28;20063;-62
2021/11/25 11:10:37;;;;;;;8.13;5.20;;;4.90;99.90;;;;;;5049434;28;20521;-62
2021/11/25 11:20:44;;;;;;;9.27;5.68;;;5.00;99.90;;;;;;5060911;28;20036;-62
2021/11/25 11:23:12;;;;;;;8.73;5.00;;;5.00;99.90;;;;;;5064412;28;20032;-62
2021/11/25 11:25:39;;;;;;;7.47;5.35;;;5.00;99.90;;;;;;5066290;28;20064;-63
2021/11/25 11:28:06;;;;;;;13.05;5.63;;;5.00;99.90;;;;;;5070479;28;20041;-62
2021/11/25 11:30:32;;;;;;;8.73;5.20;;;4.80;99.90;;;;;;5056323;28;20037;-63
2021/11/25 11:32:58;;;;;;;7.90;5.28;;;4.70;99.90;;;;;;5065601;28;20488;-62
2021/11/25 11:35:25;;;;;;;6.95;5.40;;;4.50;99.90;;;;;;5062872;28;20029;-62
2021/11/25 11:37:54;;;;;;;9.52;5.40;;;4.40;99.90;;;;;;5066890;28;20047;-62
2021/11/25 11:40:28;;;;;;;11.57;5.60;;;4.40;99.90;;;;;;5056991;28;20048;-62
2021/11/25 11:42:58;;;;;;;9.27;5.38;;;4.30;99.90;;;;;;5059389;28;20101;-61
2021/11/25 11:45:24;;;;;;;8.02;5.75;;;4.30;99.90;;;;;;5064172;28;20060;-62
2021/11/25 11:47:55;;;;;;;9.75;6.43;;;4.30;99.90;;;;;;5068121;28;20048;-62
2021/11/25 11:50:31;;;;;;;9.52;6.28;;;4.20;99.90;;;;;;5054215;28;20048;-61
2021/11/25 11:53:03;;;;;;;10.52;6.38;;;4.10;99.90;;;;;;5059723;28;20047;-62
2021/11/25 11:55:39;;;;;;;9.32;6.32;;;4.20;99.90;;;;;;5064186;28;20041;-62
2021/11/25 11:58:28;;;;;;;10.77;6.70;;;4.10;99.90;;;;;;5061721;28;20036;-61
2021/11/25 12:01:14;;;;;;;11.50;6.47;;;4.00;99.90;;;;;;5061326;28;20036;-61
2021/11/25 12:04:02;;;;;;;9.20;6.30;;;3.90;99.90;;;;;;5051409;28;20045;-61
2021/11/25 12:06:34;;;;;;;12.00;7.22;;;4.00;99.90;;;;;;5055384;28;20044;-62
2021/11/25 12:09:24;;;;;;;10.73;7.00;;;4.00;99.90;;;;;;5062479;28;20041;-61
2021/11/25 12:12:18;;;;;;;9.20;6.60;;;4.10;99.90;;;;;;5055668;28;20645;-62
2021/11/25 12:14:55;;;;;;;10.90;6.40;;;3.90;99.90;;;;;;5069745;28;20079;-63
2021/11/25 12:17:28;;;;;;;10.70;7.13;;;3.80;99.90;;;;;;5069156;28;20079;-63
2021/11/25 12:19:54;;;;;;;10.27;6.78;;;3.80;99.90;;;;;;5063041;28;20153;-64
2021/11/25 12:22:21;;;;;;;10.95;6.65;;;3.70;99.90;;;;;;5070750;28;20115;-63
2021/11/25 12:24:57;;;;;;;9.32;6.75;;;3.80;99.90;;;;;;5068502;28;20077;-63
2021/11/25 12:27:28;;;;;;;;;;;3.80;99.90;;;;;;5070466;28;20123;-64
2021/11/25 12:30:03;;;;;;;14.55;8.95;;;3.80;99.90;;;;;;5068807;28;19916;-64
2021/11/25 12:35:02;;;;;;;11.25;7.20;;;3.70;99.90;;;;;;5065195;28;20103;-63
2021/11/25 12:37:43;;;;;;;10.65;7.78;;;3.60;99.90;;;;;;5066150;28;20045;-63
2021/11/25 12:40:14;;;;;;;14.98;8.50;;;3.50;99.90;;;;;;5061674;28;20052;-63
2021/11/25 12:42:45;;;;;;;14.07;8.15;;;3.50;99.90;;;;;;5065561;28;20480;-64
2021/11/25 12:45:30;;;;;;;12.40;8.75;;;3.50;99.90;;;;;;5063070;28;20392;-64
2021/11/25 12:48:11;;;;;;;12.43;8.45;;;3.40;99.90;;;;;;5064698;28;20124;-64
2021/11/25 12:50:54;;;;;;;11.63;7.93;;;3.40;99.90;;;;;;5058321;28;20119;-65
2021/11/25 12:53:27;;;;;;;13.25;8.07;;;3.40;99.90;;;;;;5069090;28;20028;-64
2021/11/25 12:56:02;;;;;;;11.65;7.60;;;3.40;99.90;;;;;;5070463;28;20028;-64
2021/11/25 12:58:34;;;;;;;10.32;7.55;;;3.40;99.90;;;;;;5066731;28;20036;-66
2021/11/25 13:01:01;;;;;;;11.93;8.15;;;3.40;99.90;;;;;;5053489;28;20040;-63
2021/11/25 13:03:27;;;;;;;13.05;8.50;;;3.40;99.90;;;;;;5066448;28;20120;-64
2021/11/25 13:05:53;;;;;;;12.48;8.05;;;3.30;99.90;;;;;;5069441;28;20120;-63
2021/11/25 13:08:40;;;;;;;9.90;7.15;;;3.30;99.90;;;;;;5069459;28;20355;-63
2021/11/25 13:11:15;;;;;;;11.20;7.40;;;3.40;99.90;;;;;;5054526;28;20049;-62